sensor_id;sensor_type;location;lat;lon;timestamp;P1;durP1;ratioP1;P2;durP2;ratioP2
757;SDS011;363;48.764;9.172;2023-08-12T00:01:31;6.70;;;6.10;;
757;SDS011;363;48.764;9.172;2023-08-12T00:03:57;7.37;;;6.67;;
757;SDS011;363;48.764;9.172;2023-08-12T00:06:22;6.10;;;5.60;;
757;SDS011;363;48.764;9.172;2023-08-12T00:08:48;6.57;;;5.97;;
757;SDS011;363;48.764;9.172;2023-08-12T00:11:13;8.83;;;5.60;;
757;SDS011;363;48.764;9.172;2023-08-12T00:13:39;6.27;;;5.67;;
757;SDS011;363;48.764;9.172;2023-08-12T00:16:05;5.73;;;5.23;;
757;SDS011;363;48.764;9.172;2023-08-12T00:18:31;7.77;;;6.03;;
757;SDS011;363;48.764;9.172;2023-08-12T00:21:03;5.70;;;5.20;;
757;SDS011;363;48.764;9.172;2023-08-12T00:23:37;5.85;;;5.35;;
757;SDS011;363;48.764;9.172;2023-08-12T00:26:04;6.20;;;5.70;;
757;SDS011;363;48.764;9.172;2023-08-12T00:28:30;5.80;;;5.40;;
757;SDS011;363;48.764;9.172;2023-08-12T00:30:55;6.47;;;5.80;;
757;SDS011;363;48.764;9.172;2023-08-12T00:33:21;6.17;;;5.57;;
757;SDS011;363;48.764;9.172;2023-08-12T00:35:46;5.93;;;5.43;;
757;SDS011;363;48.764;9.172;2023-08-12T00:38:12;6.40;;;5.80;;
757;SDS011;363;48.764;9.172;2023-08-12T00:40:38;5.70;;;5.20;;
757;SDS011;363;48.764;9.172;2023-08-12T00:43:03;9.50;;;5.40;;
757;SDS011;363;48.764;9.172;2023-08-12T00:45:29;7.07;;;5.90;;
757;SDS011;363;48.764;9.172;2023-08-12T00:47:54;6.50;;;5.90;;
757;SDS011;363;48.764;9.172;2023-08-12T00:50:20;6.13;;;5.63;;
757;SDS011;363;48.764;9.172;2023-08-12T00:52:47;6.75;;;6.18;;
757;SDS011;363;48.764;9.172;2023-08-12T00:55:14;6.40;;;5.90;;
757;SDS011;363;48.764;9.172;2023-08-12T00:57:40;5.88;;;5.38;;
757;SDS011;363;48.764;9.172;2023-08-12T01:00:06;6.80;;;6.25;;
757;SDS011;363;48.764;9.172;2023-08-12T01:02:33;5.57;;;5.18;;
757;SDS011;363;48.764;9.172;2023-08-12T01:04:59;6.90;;;6.30;;
757;SDS011;363;48.764;9.172;2023-08-12T01:07:24;6.20;;;5.60;;
757;SDS011;363;48.764;9.172;2023-08-12T01:09:50;6.80;;;5.90;;
757;SDS011;363;48.764;9.172;2023-08-12T01:15:43;5.65;;;5.15;;
757;SDS011;363;48.764;9.172;2023-08-12T01:18:03;5.72;;;5.22;;
757;SDS011;363;48.764;9.172;2023-08-12T01:20:30;6.45;;;5.85;;
757;SDS011;363;48.764;9.172;2023-08-12T01:23:17;6.13;;;5.50;;
757;SDS011;363;48.764;9.172;2023-08-12T01:25:42;6.47;;;5.88;;
757;SDS011;363;48.764;9.172;2023-08-12T01:28:08;6.28;;;5.68;;
757;SDS011;363;48.764;9.172;2023-08-12T01:30:35;5.90;;;5.45;;
757;SDS011;363;48.764;9.172;2023-08-12T01:33:14;6.28;;;5.70;;
757;SDS011;363;48.764;9.172;2023-08-12T01:35:53;7.55;;;5.05;;
757;SDS011;363;48.764;9.172;2023-08-12T01:38:20;6.07;;;5.50;;
757;SDS011;363;48.764;9.172;2023-08-12T01:40:48;5.50;;;5.10;;
757;SDS011;363;48.764;9.172;2023-08-12T01:43:15;6.50;;;5.90;;
757;SDS011;363;48.764;9.172;2023-08-12T01:45:41;6.03;;;5.53;;
757;SDS011;363;48.764;9.172;2023-08-12T01:48:08;6.55;;;5.97;;
757;SDS011;363;48.764;9.172;2023-08-12T01:50:34;8.00;;;5.67;;
757;SDS011;363;48.764;9.172;2023-08-12T01:53:00;6.83;;;5.47;;
757;SDS011;363;48.764;9.172;2023-08-12T01:55:25;6.43;;;5.83;;
757;SDS011;363;48.764;9.172;2023-08-12T01:57:51;6.32;;;5.70;;
757;SDS011;363;48.764;9.172;2023-08-12T02:00:17;6.10;;;5.60;;
757;SDS011;363;48.764;9.172;2023-08-12T02:02:42;6.13;;;5.63;;
757;SDS011;363;48.764;9.172;2023-08-12T02:05:11;6.00;;;5.50;;
757;SDS011;363;48.764;9.172;2023-08-12T02:07:36;6.40;;;5.80;;
757;SDS011;363;48.764;9.172;2023-08-12T02:10:02;7.20;;;5.73;;
757;SDS011;363;48.764;9.172;2023-08-12T02:12:28;5.20;;;4.70;;
757;SDS011;363;48.764;9.172;2023-08-12T02:14:53;5.80;;;5.30;;
757;SDS011;363;48.764;9.172;2023-08-12T02:17:19;5.90;;;5.40;;
757;SDS011;363;48.764;9.172;2023-08-12T02:19:45;5.70;;;5.30;;
757;SDS011;363;48.764;9.172;2023-08-12T02:22:10;6.43;;;5.83;;
757;SDS011;363;48.764;9.172;2023-08-12T02:24:36;6.77;;;6.10;;
757;SDS011;363;48.764;9.172;2023-08-12T02:27:01;6.27;;;5.67;;
757;SDS011;363;48.764;9.172;2023-08-12T02:29:27;7.23;;;6.23;;
757;SDS011;363;48.764;9.172;2023-08-12T02:31:53;7.27;;;6.67;;
757;SDS011;363;48.764;9.172;2023-08-12T02:34:18;6.40;;;5.90;;
757;SDS011;363;48.764;9.172;2023-08-12T02:36:44;7.20;;;6.00;;
757;SDS011;363;48.764;9.172;2023-08-12T02:39:09;5.57;;;5.07;;
757;SDS011;363;48.764;9.172;2023-08-12T02:41:35;7.03;;;6.17;;
757;SDS011;363;48.764;9.172;2023-08-12T02:44:01;5.90;;;5.50;;
757;SDS011;363;48.764;9.172;2023-08-12T02:46:26;6.40;;;5.90;;
757;SDS011;363;48.764;9.172;2023-08-12T02:48:52;5.93;;;5.43;;
757;SDS011;363;48.764;9.172;2023-08-12T02:51:17;6.40;;;5.90;;
757;SDS011;363;48.764;9.172;2023-08-12T02:53:43;5.53;;;5.03;;
757;SDS011;363;48.764;9.172;2023-08-12T02:56:09;6.77;;;6.07;;
757;SDS011;363;48.764;9.172;2023-08-12T02:58:34;6.17;;;5.70;;
757;SDS011;363;48.764;9.172;2023-08-12T03:01:00;6.50;;;5.90;;
757;SDS011;363;48.764;9.172;2023-08-12T03:03:25;6.17;;;5.67;;
757;SDS011;363;48.764;9.172;2023-08-12T03:05:51;7.00;;;6.03;;
757;SDS011;363;48.764;9.172;2023-08-12T03:08:17;5.47;;;4.97;;
757;SDS011;363;48.764;9.172;2023-08-12T03:10:44;6.53;;;6.00;;
757;SDS011;363;48.764;9.172;2023-08-12T03:13:09;6.35;;;5.85;;
757;SDS011;363;48.764;9.172;2023-08-12T03:15:38;6.57;;;5.13;;
757;SDS011;363;48.764;9.172;2023-08-12T03:18:04;7.05;;;5.90;;
757;SDS011;363;48.764;9.172;2023-08-12T03:20:30;6.20;;;5.80;;
757;SDS011;363;48.764;9.172;2023-08-12T03:22:56;6.30;;;5.70;;
757;SDS011;363;48.764;9.172;2023-08-12T03:25:21;6.50;;;5.93;;
757;SDS011;363;48.764;9.172;2023-08-12T03:27:47;7.20;;;5.88;;
757;SDS011;363;48.764;9.172;2023-08-12T03:30:13;5.87;;;5.37;;
757;SDS011;363;48.764;9.172;2023-08-12T03:32:39;6.50;;;5.90;;
757;SDS011;363;48.764;9.172;2023-08-12T03:35:04;5.83;;;5.33;;
757;SDS011;363;48.764;9.172;2023-08-12T03:37:30;6.60;;;6.00;;
757;SDS011;363;48.764;9.172;2023-08-12T03:39:56;6.30;;;5.80;;
757;SDS011;363;48.764;9.172;2023-08-12T03:42:21;5.90;;;5.40;;
757;SDS011;363;48.764;9.172;2023-08-12T03:44:47;6.20;;;5.70;;
757;SDS011;363;48.764;9.172;2023-08-12T03:47:12;6.50;;;6.00;;
757;SDS011;363;48.764;9.172;2023-08-12T03:49:38;6.10;;;5.60;;
757;SDS011;363;48.764;9.172;2023-08-12T03:52:04;6.10;;;5.60;;
757;SDS011;363;48.764;9.172;2023-08-12T03:54:32;5.78;;;5.30;;
757;SDS011;363;48.764;9.172;2023-08-12T03:56:57;5.87;;;5.40;;
757;SDS011;363;48.764;9.172;2023-08-12T03:59:23;6.33;;;5.73;;
757;SDS011;363;48.764;9.172;2023-08-12T04:01:49;6.50;;;5.97;;
757;SDS011;363;48.764;9.172;2023-08-12T04:04:14;6.50;;;5.97;;
757;SDS011;363;48.764;9.172;2023-08-12T04:06:40;6.43;;;5.90;;
757;SDS011;363;48.764;9.172;2023-08-12T04:09:05;6.07;;;5.60;;
757;SDS011;363;48.764;9.172;2023-08-12T04:11:31;6.50;;;6.00;;
757;SDS011;363;48.764;9.172;2023-08-12T04:13:56;6.13;;;5.73;;
757;SDS011;363;48.764;9.172;2023-08-12T04:16:22;5.50;;;5.03;;
757;SDS011;363;48.764;9.172;2023-08-12T04:18:48;6.17;;;5.67;;
757;SDS011;363;48.764;9.172;2023-08-12T04:21:13;6.63;;;6.03;;
757;SDS011;363;48.764;9.172;2023-08-12T04:23:39;6.90;;;6.30;;
757;SDS011;363;48.764;9.172;2023-08-12T04:26:05;5.70;;;5.30;;
757;SDS011;363;48.764;9.172;2023-08-12T04:28:30;6.90;;;5.83;;
757;SDS011;363;48.764;9.172;2023-08-12T04:30:56;6.17;;;5.67;;
757;SDS011;363;48.764;9.172;2023-08-12T04:33:22;6.40;;;5.90;;
757;SDS011;363;48.764;9.172;2023-08-12T04:35:48;6.32;;;5.80;;
757;SDS011;363;48.764;9.172;2023-08-12T04:38:14;6.20;;;5.60;;
757;SDS011;363;48.764;9.172;2023-08-12T04:40:40;6.38;;;5.53;;
757;SDS011;363;48.764;9.172;2023-08-12T04:43:07;5.90;;;5.40;;
757;SDS011;363;48.764;9.172;2023-08-12T04:45:33;6.53;;;6.00;;
757;SDS011;363;48.764;9.172;2023-08-12T04:47:59;6.53;;;5.90;;
757;SDS011;363;48.764;9.172;2023-08-12T04:50:24;6.37;;;5.77;;
757;SDS011;363;48.764;9.172;2023-08-12T04:52:50;6.03;;;5.63;;
757;SDS011;363;48.764;9.172;2023-08-12T04:55:16;6.70;;;6.10;;
757;SDS011;363;48.764;9.172;2023-08-12T04:57:42;6.28;;;5.78;;
757;SDS011;363;48.764;9.172;2023-08-12T05:00:07;6.60;;;6.10;;
757;SDS011;363;48.764;9.172;2023-08-12T05:02:33;6.20;;;5.70;;
757;SDS011;363;48.764;9.172;2023-08-12T05:05:00;6.50;;;5.97;;
757;SDS011;363;48.764;9.172;2023-08-12T05:07:26;6.40;;;5.80;;
757;SDS011;363;48.764;9.172;2023-08-12T05:09:52;6.73;;;6.13;;
757;SDS011;363;48.764;9.172;2023-08-12T05:12:18;6.23;;;5.70;;
757;SDS011;363;48.764;9.172;2023-08-12T05:14:44;6.45;;;5.85;;
757;SDS011;363;48.764;9.172;2023-08-12T05:17:09;6.80;;;6.20;;
757;SDS011;363;48.764;9.172;2023-08-12T05:19:35;6.73;;;6.07;;
757;SDS011;363;48.764;9.172;2023-08-12T05:22:01;6.70;;;6.20;;
757;SDS011;363;48.764;9.172;2023-08-12T05:24:27;5.60;;;5.10;;
757;SDS011;363;48.764;9.172;2023-08-12T05:26:52;6.37;;;5.87;;
757;SDS011;363;48.764;9.172;2023-08-12T05:29:18;6.50;;;5.90;;
757;SDS011;363;48.764;9.172;2023-08-12T05:31:43;6.10;;;5.60;;
757;SDS011;363;48.764;9.172;2023-08-12T05:34:09;6.60;;;6.10;;
757;SDS011;363;48.764;9.172;2023-08-12T05:36:35;7.50;;;6.10;;
757;SDS011;363;48.764;9.172;2023-08-12T05:39:01;6.57;;;6.07;;
757;SDS011;363;48.764;9.172;2023-08-12T05:41:28;5.90;;;5.50;;
757;SDS011;363;48.764;9.172;2023-08-12T05:43:54;6.10;;;5.60;;
757;SDS011;363;48.764;9.172;2023-08-12T05:46:19;6.03;;;5.53;;
757;SDS011;363;48.764;9.172;2023-08-12T05:48:45;6.67;;;6.10;;
757;SDS011;363;48.764;9.172;2023-08-12T05:51:11;7.80;;;7.10;;
757;SDS011;363;48.764;9.172;2023-08-12T05:53:37;6.77;;;6.10;;
757;SDS011;363;48.764;9.172;2023-08-12T05:56:03;7.07;;;6.57;;
757;SDS011;363;48.764;9.172;2023-08-12T05:58:28;6.97;;;6.43;;
757;SDS011;363;48.764;9.172;2023-08-12T06:00:54;6.90;;;6.40;;
757;SDS011;363;48.764;9.172;2023-08-12T06:03:20;6.80;;;6.30;;
757;SDS011;363;48.764;9.172;2023-08-12T06:05:46;8.03;;;6.30;;
757;SDS011;363;48.764;9.172;2023-08-12T06:08:12;6.53;;;6.07;;
757;SDS011;363;48.764;9.172;2023-08-12T06:10:38;6.33;;;5.77;;
757;SDS011;363;48.764;9.172;2023-08-12T06:13:04;7.47;;;6.87;;
757;SDS011;363;48.764;9.172;2023-08-12T06:15:29;6.60;;;6.03;;
757;SDS011;363;48.764;9.172;2023-08-12T06:17:56;6.78;;;6.20;;
757;SDS011;363;48.764;9.172;2023-08-12T06:20:22;7.83;;;6.10;;
757;SDS011;363;48.764;9.172;2023-08-12T06:22:49;6.67;;;6.17;;
757;SDS011;363;48.764;9.172;2023-08-12T06:25:15;6.70;;;6.20;;
757;SDS011;363;48.764;9.172;2023-08-12T06:27:40;6.30;;;5.80;;
757;SDS011;363;48.764;9.172;2023-08-12T06:30:06;6.67;;;6.07;;
757;SDS011;363;48.764;9.172;2023-08-12T06:32:33;6.60;;;6.10;;
757;SDS011;363;48.764;9.172;2023-08-12T06:35:00;6.20;;;5.80;;
757;SDS011;363;48.764;9.172;2023-08-12T06:37:25;7.80;;;7.20;;
757;SDS011;363;48.764;9.172;2023-08-12T06:39:51;6.93;;;6.43;;
757;SDS011;363;48.764;9.172;2023-08-12T06:42:16;7.57;;;6.87;;
757;SDS011;363;48.764;9.172;2023-08-12T06:44:42;7.00;;;6.43;;
757;SDS011;363;48.764;9.172;2023-08-12T06:47:07;7.50;;;6.87;;
757;SDS011;363;48.764;9.172;2023-08-12T06:49:33;8.20;;;6.43;;
757;SDS011;363;48.764;9.172;2023-08-12T06:51:59;6.67;;;6.07;;
757;SDS011;363;48.764;9.172;2023-08-12T06:54:24;6.60;;;6.10;;
757;SDS011;363;48.764;9.172;2023-08-12T06:56:50;7.87;;;6.10;;
757;SDS011;363;48.764;9.172;2023-08-12T06:59:15;6.33;;;5.83;;
757;SDS011;363;48.764;9.172;2023-08-12T07:01:41;6.90;;;6.30;;
757;SDS011;363;48.764;9.172;2023-08-12T07:04:06;7.23;;;6.53;;
757;SDS011;363;48.764;9.172;2023-08-12T07:06:32;7.63;;;6.90;;
757;SDS011;363;48.764;9.172;2023-08-12T07:08:57;6.40;;;5.83;;
757;SDS011;363;48.764;9.172;2023-08-12T07:11:23;6.83;;;6.33;;
757;SDS011;363;48.764;9.172;2023-08-12T07:13:49;6.90;;;6.30;;
757;SDS011;363;48.764;9.172;2023-08-12T07:16:14;6.30;;;5.80;;
757;SDS011;363;48.764;9.172;2023-08-12T07:18:40;6.63;;;6.03;;
757;SDS011;363;48.764;9.172;2023-08-12T07:21:06;5.90;;;5.30;;
757;SDS011;363;48.764;9.172;2023-08-12T07:23:31;6.30;;;5.83;;
757;SDS011;363;48.764;9.172;2023-08-12T07:25:57;5.30;;;4.90;;
757;SDS011;363;48.764;9.172;2023-08-12T07:28:23;5.73;;;5.20;;
757;SDS011;363;48.764;9.172;2023-08-12T07:30:48;5.50;;;5.03;;
757;SDS011;363;48.764;9.172;2023-08-12T07:33:14;6.17;;;5.70;;
757;SDS011;363;48.764;9.172;2023-08-12T07:35:40;5.40;;;5.07;;
757;SDS011;363;48.764;9.172;2023-08-12T07:38:06;6.67;;;5.30;;
757;SDS011;363;48.764;9.172;2023-08-12T07:40:32;6.00;;;5.20;;
757;SDS011;363;48.764;9.172;2023-08-12T07:42:57;5.93;;;5.43;;
757;SDS011;363;48.764;9.172;2023-08-12T07:45:23;5.77;;;5.27;;
757;SDS011;363;48.764;9.172;2023-08-12T07:47:49;6.00;;;5.40;;
757;SDS011;363;48.764;9.172;2023-08-12T07:50:15;6.20;;;5.60;;
757;SDS011;363;48.764;9.172;2023-08-12T07:52:40;5.40;;;5.00;;
757;SDS011;363;48.764;9.172;2023-08-12T07:55:06;6.23;;;5.80;;
757;SDS011;363;48.764;9.172;2023-08-12T07:57:32;6.10;;;5.70;;
757;SDS011;363;48.764;9.172;2023-08-12T07:59:58;5.80;;;5.40;;
757;SDS011;363;48.764;9.172;2023-08-12T08:02:23;6.20;;;5.77;;
757;SDS011;363;48.764;9.172;2023-08-12T08:04:49;7.80;;;6.37;;
757;SDS011;363;48.764;9.172;2023-08-12T08:07:15;6.57;;;6.07;;
757;SDS011;363;48.764;9.172;2023-08-12T08:09:42;5.77;;;5.37;;
757;SDS011;363;48.764;9.172;2023-08-12T08:12:09;6.33;;;5.93;;
757;SDS011;363;48.764;9.172;2023-08-12T08:14:35;6.60;;;6.10;;
757;SDS011;363;48.764;9.172;2023-08-12T08:17:01;6.40;;;5.80;;
757;SDS011;363;48.764;9.172;2023-08-12T08:19:28;6.13;;;5.73;;
757;SDS011;363;48.764;9.172;2023-08-12T08:21:54;6.80;;;6.30;;
757;SDS011;363;48.764;9.172;2023-08-12T08:24:19;6.03;;;5.63;;
757;SDS011;363;48.764;9.172;2023-08-12T08:26:45;6.53;;;5.93;;
757;SDS011;363;48.764;9.172;2023-08-12T08:29:12;6.70;;;6.20;;
757;SDS011;363;48.764;9.172;2023-08-12T08:31:38;6.70;;;6.17;;
757;SDS011;363;48.764;9.172;2023-08-12T08:34:03;6.10;;;5.70;;
757;SDS011;363;48.764;9.172;2023-08-12T08:36:29;6.47;;;5.50;;
757;SDS011;363;48.764;9.172;2023-08-12T08:38:55;5.97;;;5.43;;
757;SDS011;363;48.764;9.172;2023-08-12T08:41:20;5.93;;;5.43;;
757;SDS011;363;48.764;9.172;2023-08-12T08:43:50;6.20;;;5.70;;
757;SDS011;363;48.764;9.172;2023-08-12T08:46:19;6.43;;;5.93;;
757;SDS011;363;48.764;9.172;2023-08-12T08:48:46;6.77;;;6.20;;
757;SDS011;363;48.764;9.172;2023-08-12T08:51:13;7.13;;;6.57;;
757;SDS011;363;48.764;9.172;2023-08-12T08:53:39;6.90;;;6.30;;
757;SDS011;363;48.764;9.172;2023-08-12T08:56:06;6.63;;;6.13;;
757;SDS011;363;48.764;9.172;2023-08-12T08:58:32;7.97;;;7.30;;
757;SDS011;363;48.764;9.172;2023-08-12T09:00:58;7.07;;;6.37;;
757;SDS011;363;48.764;9.172;2023-08-12T09:03:24;6.20;;;5.80;;
757;SDS011;363;48.764;9.172;2023-08-12T09:05:50;6.27;;;5.70;;
757;SDS011;363;48.764;9.172;2023-08-12T09:08:18;6.17;;;5.77;;
757;SDS011;363;48.764;9.172;2023-08-12T09:10:45;6.30;;;5.80;;
757;SDS011;363;48.764;9.172;2023-08-12T09:13:12;7.33;;;6.73;;
757;SDS011;363;48.764;9.172;2023-08-12T09:15:39;6.10;;;5.53;;
757;SDS011;363;48.764;9.172;2023-08-12T09:18:05;6.63;;;5.83;;
757;SDS011;363;48.764;9.172;2023-08-12T09:20:32;6.23;;;5.83;;
757;SDS011;363;48.764;9.172;2023-08-12T09:22:58;6.50;;;5.80;;
757;SDS011;363;48.764;9.172;2023-08-12T09:25:25;5.70;;;5.30;;
757;SDS011;363;48.764;9.172;2023-08-12T09:27:53;8.63;;;7.93;;
757;SDS011;363;48.764;9.172;2023-08-12T09:30:20;7.27;;;6.53;;
757;SDS011;363;48.764;9.172;2023-08-12T09:33:02;6.90;;;6.40;;
757;SDS011;363;48.764;9.172;2023-08-12T09:35:32;5.57;;;4.87;;
757;SDS011;363;48.764;9.172;2023-08-12T09:38:06;5.30;;;4.77;;
757;SDS011;363;48.764;9.172;2023-08-12T09:40:35;4.50;;;4.20;;
757;SDS011;363;48.764;9.172;2023-08-12T09:43:01;4.07;;;3.87;;
757;SDS011;363;48.764;9.172;2023-08-12T09:45:28;3.87;;;3.57;;
757;SDS011;363;48.764;9.172;2023-08-12T09:47:54;4.57;;;4.07;;
757;SDS011;363;48.764;9.172;2023-08-12T09:50:22;2.97;;;2.77;;
757;SDS011;363;48.764;9.172;2023-08-12T09:52:50;4.00;;;3.70;;
757;SDS011;363;48.764;9.172;2023-08-12T09:55:16;3.67;;;3.40;;
757;SDS011;363;48.764;9.172;2023-08-12T09:57:43;3.57;;;3.23;;
757;SDS011;363;48.764;9.172;2023-08-12T10:00:12;4.80;;;3.50;;
757;SDS011;363;48.764;9.172;2023-08-12T10:02:42;3.67;;;3.40;;
757;SDS011;363;48.764;9.172;2023-08-12T10:05:09;3.60;;;3.13;;
757;SDS011;363;48.764;9.172;2023-08-12T10:07:37;3.97;;;3.53;;
757;SDS011;363;48.764;9.172;2023-08-12T10:10:04;3.70;;;3.40;;
757;SDS011;363;48.764;9.172;2023-08-12T10:12:32;4.07;;;3.27;;
757;SDS011;363;48.764;9.172;2023-08-12T10:14:58;4.57;;;3.73;;
757;SDS011;363;48.764;9.172;2023-08-12T10:17:25;3.47;;;3.27;;
757;SDS011;363;48.764;9.172;2023-08-12T10:19:55;4.00;;;3.70;;
757;SDS011;363;48.764;9.172;2023-08-12T10:22:23;5.53;;;4.13;;
757;SDS011;363;48.764;9.172;2023-08-12T10:24:50;4.60;;;4.20;;
757;SDS011;363;48.764;9.172;2023-08-12T10:27:17;6.10;;;5.60;;
757;SDS011;363;48.764;9.172;2023-08-12T10:29:43;5.37;;;4.97;;
757;SDS011;363;48.764;9.172;2023-08-12T10:32:10;4.27;;;3.87;;
757;SDS011;363;48.764;9.172;2023-08-12T10:34:37;6.00;;;3.97;;
757;SDS011;363;48.764;9.172;2023-08-12T10:37:03;5.93;;;3.80;;
757;SDS011;363;48.764;9.172;2023-08-12T10:39:33;4.03;;;3.70;;
757;SDS011;363;48.764;9.172;2023-08-12T10:41:59;3.90;;;3.60;;
757;SDS011;363;48.764;9.172;2023-08-12T10:47:15;4.13;;;3.83;;
757;SDS011;363;48.764;9.172;2023-08-12T10:49:47;4.17;;;3.80;;
757;SDS011;363;48.764;9.172;2023-08-12T10:52:27;3.97;;;3.67;;
757;SDS011;363;48.764;9.172;2023-08-12T10:57:57;5.87;;;3.87;;
757;SDS011;363;48.764;9.172;2023-08-12T11:00:24;5.00;;;4.63;;
757;SDS011;363;48.764;9.172;2023-08-12T11:02:51;4.37;;;4.07;;
757;SDS011;363;48.764;9.172;2023-08-12T11:05:18;4.03;;;3.73;;
757;SDS011;363;48.764;9.172;2023-08-12T11:10:18;4.03;;;3.73;;
757;SDS011;363;48.764;9.172;2023-08-12T11:15:41;3.70;;;3.50;;
757;SDS011;363;48.764;9.172;2023-08-12T11:18:07;3.40;;;3.20;;
757;SDS011;363;48.764;9.172;2023-08-12T11:20:34;3.77;;;3.40;;
757;SDS011;363;48.764;9.172;2023-08-12T11:23:01;4.33;;;3.63;;
757;SDS011;363;48.764;9.172;2023-08-12T11:25:28;4.00;;;3.70;;
757;SDS011;363;48.764;9.172;2023-08-12T11:27:55;4.03;;;3.03;;
757;SDS011;363;48.764;9.172;2023-08-12T11:30:21;4.93;;;3.73;;
757;SDS011;363;48.764;9.172;2023-08-12T11:32:49;3.73;;;3.43;;
757;SDS011;363;48.764;9.172;2023-08-12T11:35:16;3.83;;;3.53;;
757;SDS011;363;48.764;9.172;2023-08-12T11:37:44;4.23;;;3.90;;
757;SDS011;363;48.764;9.172;2023-08-12T11:40:12;4.33;;;4.03;;
757;SDS011;363;48.764;9.172;2023-08-12T11:42:40;3.80;;;3.40;;
757;SDS011;363;48.764;9.172;2023-08-12T11:45:07;4.37;;;4.07;;
757;SDS011;363;48.764;9.172;2023-08-12T11:47:33;3.73;;;3.53;;
757;SDS011;363;48.764;9.172;2023-08-12T11:50:03;4.00;;;3.70;;
757;SDS011;363;48.764;9.172;2023-08-12T11:52:30;5.03;;;4.43;;
757;SDS011;363;48.764;9.172;2023-08-12T11:54:56;5.67;;;3.57;;
757;SDS011;363;48.764;9.172;2023-08-12T11:57:22;5.90;;;4.30;;
757;SDS011;363;48.764;9.172;2023-08-12T11:59:48;4.13;;;3.77;;
757;SDS011;363;48.764;9.172;2023-08-12T12:02:14;4.60;;;4.10;;
757;SDS011;363;48.764;9.172;2023-08-12T12:04:44;4.17;;;3.87;;
757;SDS011;363;48.764;9.172;2023-08-12T12:07:23;6.37;;;3.57;;
757;SDS011;363;48.764;9.172;2023-08-12T12:09:53;5.40;;;4.30;;
757;SDS011;363;48.764;9.172;2023-08-12T12:12:22;5.60;;;5.20;;
757;SDS011;363;48.764;9.172;2023-08-12T12:14:52;5.50;;;5.10;;
757;SDS011;363;48.764;9.172;2023-08-12T12:17:20;8.53;;;5.30;;
757;SDS011;363;48.764;9.172;2023-08-12T12:19:55;6.10;;;5.60;;
757;SDS011;363;48.764;9.172;2023-08-12T12:22:26;5.40;;;5.00;;
757;SDS011;363;48.764;9.172;2023-08-12T12:24:53;5.73;;;5.20;;
757;SDS011;363;48.764;9.172;2023-08-12T12:27:19;6.53;;;5.93;;
757;SDS011;363;48.764;9.172;2023-08-12T12:29:45;6.47;;;5.90;;
757;SDS011;363;48.764;9.172;2023-08-12T12:32:10;6.87;;;6.27;;
757;SDS011;363;48.764;9.172;2023-08-12T12:34:36;7.00;;;5.80;;
757;SDS011;363;48.764;9.172;2023-08-12T12:37:02;5.90;;;5.30;;
757;SDS011;363;48.764;9.172;2023-08-12T12:39:28;6.00;;;5.40;;
757;SDS011;363;48.764;9.172;2023-08-12T12:41:53;6.93;;;6.43;;
757;SDS011;363;48.764;9.172;2023-08-12T12:44:19;6.87;;;6.17;;
757;SDS011;363;48.764;9.172;2023-08-12T12:46:44;5.93;;;5.47;;
757;SDS011;363;48.764;9.172;2023-08-12T12:49:10;7.10;;;6.20;;
757;SDS011;363;48.764;9.172;2023-08-12T12:51:36;5.33;;;4.83;;
757;SDS011;363;48.764;9.172;2023-08-12T12:54:01;6.20;;;5.60;;
757;SDS011;363;48.764;9.172;2023-08-12T12:56:27;6.07;;;5.57;;
757;SDS011;363;48.764;9.172;2023-08-12T12:58:53;6.37;;;5.87;;
757;SDS011;363;48.764;9.172;2023-08-12T13:01:18;6.80;;;6.20;;
757;SDS011;363;48.764;9.172;2023-08-12T13:03:44;6.80;;;6.23;;
757;SDS011;363;48.764;9.172;2023-08-12T13:06:09;7.00;;;6.17;;
757;SDS011;363;48.764;9.172;2023-08-12T13:08:35;7.87;;;7.17;;
757;SDS011;363;48.764;9.172;2023-08-12T13:11:01;7.00;;;6.50;;
757;SDS011;363;48.764;9.172;2023-08-12T13:13:26;8.67;;;7.90;;
757;SDS011;363;48.764;9.172;2023-08-12T13:15:52;6.80;;;6.30;;
757;SDS011;363;48.764;9.172;2023-08-12T13:18:18;7.47;;;6.80;;
757;SDS011;363;48.764;9.172;2023-08-12T13:20:43;8.23;;;7.40;;
757;SDS011;363;48.764;9.172;2023-08-12T13:23:09;7.90;;;6.87;;
757;SDS011;363;48.764;9.172;2023-08-12T13:25:35;7.97;;;7.30;;
757;SDS011;363;48.764;9.172;2023-08-12T13:28:00;8.57;;;7.63;;
757;SDS011;363;48.764;9.172;2023-08-12T13:30:28;7.33;;;6.73;;
757;SDS011;363;48.764;9.172;2023-08-12T13:32:54;9.57;;;8.87;;
757;SDS011;363;48.764;9.172;2023-08-12T13:35:20;7.63;;;7.03;;
757;SDS011;363;48.764;9.172;2023-08-12T13:37:46;8.23;;;7.40;;
757;SDS011;363;48.764;9.172;2023-08-12T13:40:11;7.20;;;6.50;;
757;SDS011;363;48.764;9.172;2023-08-12T13:42:37;7.30;;;6.70;;
757;SDS011;363;48.764;9.172;2023-08-12T13:45:04;7.93;;;7.33;;
757;SDS011;363;48.764;9.172;2023-08-12T13:47:30;7.27;;;6.57;;
757;SDS011;363;48.764;9.172;2023-08-12T13:49:55;7.50;;;6.90;;
757;SDS011;363;48.764;9.172;2023-08-12T13:52:21;7.20;;;6.50;;
757;SDS011;363;48.764;9.172;2023-08-12T13:54:47;6.67;;;5.87;;
757;SDS011;363;48.764;9.172;2023-08-12T13:57:12;6.07;;;5.57;;
757;SDS011;363;48.764;9.172;2023-08-12T13:59:38;5.63;;;5.20;;
757;SDS011;363;48.764;9.172;2023-08-12T14:02:05;5.43;;;4.93;;
757;SDS011;363;48.764;9.172;2023-08-12T14:04:31;6.23;;;5.63;;
757;SDS011;363;48.764;9.172;2023-08-12T14:06:57;6.50;;;5.23;;
757;SDS011;363;48.764;9.172;2023-08-12T14:09:22;5.93;;;4.80;;
757;SDS011;363;48.764;9.172;2023-08-12T14:11:48;5.77;;;5.13;;
757;SDS011;363;48.764;9.172;2023-08-12T14:14:14;6.60;;;5.90;;
757;SDS011;363;48.764;9.172;2023-08-12T14:16:40;6.03;;;5.43;;
757;SDS011;363;48.764;9.172;2023-08-12T14:19:06;6.20;;;5.60;;
757;SDS011;363;48.764;9.172;2023-08-12T14:21:32;6.20;;;5.70;;
757;SDS011;363;48.764;9.172;2023-08-12T14:23:57;4.87;;;4.47;;
757;SDS011;363;48.764;9.172;2023-08-12T14:26:23;5.80;;;4.73;;
757;SDS011;363;48.764;9.172;2023-08-12T14:28:48;4.60;;;4.20;;
757;SDS011;363;48.764;9.172;2023-08-12T14:31:14;4.93;;;4.53;;
757;SDS011;363;48.764;9.172;2023-08-12T14:33:40;3.87;;;3.57;;
757;SDS011;363;48.764;9.172;2023-08-12T14:36:05;4.50;;;4.20;;
757;SDS011;363;48.764;9.172;2023-08-12T14:38:31;4.97;;;4.27;;
757;SDS011;363;48.764;9.172;2023-08-12T14:40:57;4.40;;;3.97;;
757;SDS011;363;48.764;9.172;2023-08-12T14:43:23;4.57;;;4.17;;
757;SDS011;363;48.764;9.172;2023-08-12T14:45:49;4.73;;;4.33;;
757;SDS011;363;48.764;9.172;2023-08-12T14:48:14;3.80;;;3.53;;
757;SDS011;363;48.764;9.172;2023-08-12T14:50:42;4.40;;;4.00;;
757;SDS011;363;48.764;9.172;2023-08-12T14:53:07;5.20;;;3.20;;
757;SDS011;363;48.764;9.172;2023-08-12T14:55:33;4.00;;;3.57;;
757;SDS011;363;48.764;9.172;2023-08-12T14:57:59;4.87;;;4.43;;
757;SDS011;363;48.764;9.172;2023-08-12T15:00:24;3.00;;;2.80;;
757;SDS011;363;48.764;9.172;2023-08-12T15:02:50;3.20;;;2.90;;
757;SDS011;363;48.764;9.172;2023-08-12T15:05:16;3.10;;;2.70;;
757;SDS011;363;48.764;9.172;2023-08-12T15:07:42;3.37;;;3.17;;
757;SDS011;363;48.764;9.172;2023-08-12T15:10:08;3.60;;;3.30;;
757;SDS011;363;48.764;9.172;2023-08-12T15:12:34;4.40;;;2.70;;
757;SDS011;363;48.764;9.172;2023-08-12T15:15:00;3.03;;;2.83;;
757;SDS011;363;48.764;9.172;2023-08-12T15:17:26;2.80;;;2.60;;
757;SDS011;363;48.764;9.172;2023-08-12T15:19:51;3.90;;;2.80;;
757;SDS011;363;48.764;9.172;2023-08-12T15:22:17;2.87;;;2.67;;
757;SDS011;363;48.764;9.172;2023-08-12T15:24:43;3.50;;;3.07;;
757;SDS011;363;48.764;9.172;2023-08-12T15:27:08;3.27;;;3.00;;
757;SDS011;363;48.764;9.172;2023-08-12T15:29:34;2.90;;;2.70;;
757;SDS011;363;48.764;9.172;2023-08-12T15:32:00;3.60;;;3.00;;
757;SDS011;363;48.764;9.172;2023-08-12T15:34:25;4.00;;;3.10;;
757;SDS011;363;48.764;9.172;2023-08-12T15:36:52;2.97;;;2.77;;
757;SDS011;363;48.764;9.172;2023-08-12T15:39:18;3.43;;;3.13;;
757;SDS011;363;48.764;9.172;2023-08-12T15:41:44;3.70;;;3.00;;
757;SDS011;363;48.764;9.172;2023-08-12T15:44:13;3.47;;;3.17;;
757;SDS011;363;48.764;9.172;2023-08-12T15:46:39;2.70;;;2.50;;
757;SDS011;363;48.764;9.172;2023-08-12T15:49:05;2.63;;;2.43;;
757;SDS011;363;48.764;9.172;2023-08-12T15:51:32;2.90;;;2.70;;
757;SDS011;363;48.764;9.172;2023-08-12T15:53:59;3.30;;;3.00;;